Time;durP1;ratioP1;P1;durP2;ratioP2;P2;SDS_P1;SDS_P2;PMS_P1;PMS_P2;Temp;Humidity;BMP_temperature;BMP_pressure;BME280_temperature;BME280_humidity;BME280_pressure;Samples;Min_cycle;Max_cycle;Signal;HPM_P1;HPM_P2
2021/07/06 00:02:15;;;;;;;;;;;;;;;;;;5116415;27;19964;-64
2021/07/06 00:04:41;;;;;;;;;;;;;;;;;;5115618;27;20001;-64
2021/07/06 00:07:07;;;;;;;;;;;;;;;;;;5117615;27;19923;-64
2021/07/06 00:09:32;;;;;;;;;;;;;;;;;;5112036;28;19920;-65
2021/07/06 00:11:58;;;;;;;;;;;;;;;;;;5119820;27;19991;-64
2021/07/06 00:14:24;;;;;;;;;;;;;;;;;;5117051;27;20287;-64
2021/07/06 00:16:50;;;;;;;;;;;;;;;;;;5115899;27;19937;-64
2021/07/06 00:19:16;;;;;;;;;;;;;;;;;;5116059;27;19998;-64
2021/07/06 00:21:42;;;;;;;;;;;;;;;;;;5112382;27;19949;-64
2021/07/06 00:24:08;;;;;;;;;;;;;;;;;;5117836;27;20020;-64
2021/07/06 00:26:34;;;;;;;;;;;;;;;;;;5116845;27;19912;-64
2021/07/06 00:28:59;;;;;;;;;;;;;;;;;;5115881;27;19918;-64
2021/07/06 00:31:25;;;;;;;;;;;;;;;;;;5115526;27;19915;-64
2021/07/06 00:33:52;;;;;;;;;;;;;;;;;;5113926;27;19912;-64
2021/07/06 00:36:18;;;;;;;;;;;;;;;;;;5115105;27;19912;-64
2021/07/06 00:38:44;;;;;;;;;;;;;;;;;;5117247;27;19908;-64
2021/07/06 00:41:10;;;;;;;;;;;;;;;;;;5115655;27;19912;-64
2021/07/06 00:43:37;;;;;;;;;;;;;;;;;;5115625;27;19911;-64
2021/07/06 00:46:02;;;;;;;;;;;;;;;;;;5116708;27;19911;-64
2021/07/06 00:48:28;;;;;;;;;;;;;;;;;;5111990;27;20394;-64
2021/07/06 00:50:54;;;;;;;;;;;;;;;;;;5117609;27;19915;-64
2021/07/06 00:53:20;;;;;;;;;;;;;;;;;;5115392;27;20395;-64
2021/07/06 00:55:46;;;;;;;;;;;;;;;;;;5115537;27;19912;-64
2021/07/06 00:58:12;;;;;;;;;;;;;;;;;;5115294;27;19918;-64
2021/07/06 01:00:38;;;;;;;;;;;;;;;;;;5111248;28;19927;-64
2021/07/06 01:03:05;;;;;;;;;;;;;;;;;;5117985;27;19915;-64
2021/07/06 01:05:31;;;;;;;;;;;;;;;;;;5116866;27;20427;-64
2021/07/06 01:07:56;;;;;;;;;;;;;;;;;;5115130;27;19931;-64
2021/07/06 01:10:22;;;;;;;;;;;;;;;;;;5114889;27;19923;-64
2021/07/06 01:12:48;;;;;;;;;;;;;;;;;;5112562;27;20295;-64
2021/07/06 01:15:14;;;;;;;;;;;;;;;;;;5115092;27;20297;-64
2021/07/06 01:17:42;;;;;;;;;;;;;;;;;;5116244;27;19919;-64
2021/07/06 01:20:08;;;;;;;;;;;;;;;;;;5114367;27;20624;-64
2021/07/06 01:22:34;;;;;;;;;;;;;;;;;;5114350;27;19912;-64
2021/07/06 01:25:00;;;;;;;;;;;;;;;;;;5114395;27;19908;-64
2021/07/06 01:27:26;;;;;;;;;;;;;;;;;;5112322;27;20419;-64
2021/07/06 01:29:52;;;;;;;;;;;;;;;;;;5117415;27;19908;-64
2021/07/06 01:32:18;;;;;;;;;;;;;;;;;;5114698;27;19912;-64
2021/07/06 01:34:43;;;;;;;;;;;;;;;;;;5114490;27;20373;-64
2021/07/06 01:37:09;;;;;;;;;;;;;;;;;;5114378;27;20304;-64
2021/07/06 01:39:35;;;;;;;;;;;;;;;;;;5110300;27;19957;-64
2021/07/06 01:42:01;;;;;;;;;;;;;;;;;;5117874;27;20270;-64
2021/07/06 01:44:27;;;;;;;;;;;;;;;;;;5114268;27;20321;-64
2021/07/06 01:46:53;;;;;;;;;;;;;;;;;;5114140;27;20002;-64
2021/07/06 01:49:19;;;;;;;;;;;;;;;;;;5114268;27;20387;-64
2021/07/06 01:51:45;;;;;;;;;;;;;;;;;;5111436;27;19912;-64
2021/07/06 01:54:11;;;;;;;;;;;;;;;;;;5114933;27;19907;-64
2021/07/06 01:56:36;;;;;;;;;;;;;;;;;;5115415;27;20290;-64
2021/07/06 01:59:02;;;;;;;;;;;;;;;;;;5113967;27;19908;-64
2021/07/06 02:01:28;;;;;;;;;;;;;;;;;;5112722;27;20359;-64
2021/07/06 02:03:54;;;;;;;;;;;;;;;;;;5112730;27;19934;-63
2021/07/06 02:06:20;;;;;;;;;;;;;;;;;;5113245;28;19912;-63
2021/07/06 02:08:46;;;;;;;;;;;;;;;;;;5115507;27;20058;-63
2021/07/06 02:11:12;;;;;;;;;;;;;;;;;;5114835;27;19920;-63
2021/07/06 02:13:38;;;;;;;;;;;;;;;;;;5114206;27;19959;-63
2021/07/06 02:16:04;;;;;;;;;;;;;;;;;;5113394;27;19950;-63
2021/07/06 02:18:30;;;;;;;;;;;;;;;;;;5110501;27;20275;-63
2021/07/06 02:20:56;;;;;;;;;;;;;;;;;;5117018;27;20427;-63
2021/07/06 02:23:22;;;;;;;;;;;;;;;;;;5113029;27;19943;-63
2021/07/06 02:25:48;;;;;;;;;;;;;;;;;;5113794;27;19921;-63
2021/07/06 02:28:14;;;;;;;;;;;;;;;;;;5113898;28;19954;-63
2021/07/06 02:30:40;;;;;;;;;;;;;;;;;;5109977;28;20370;-63
2021/07/06 02:33:05;;;;;;;;;;;;;;;;;;5116099;27;19907;-63
2021/07/06 02:35:31;;;;;;;;;;;;;;;;;;5113720;28;19931;-63
2021/07/06 02:37:57;;;;;;;;;;;;;;;;;;5113248;28;19916;-63
2021/07/06 02:40:23;;;;;;;;;;;;;;;;;;5094732;28;19911;-63
2021/07/06 02:42:49;;;;;;;;;;;;;;;;;;5111483;28;20389;-63
2021/07/06 02:45:15;;;;;;;;;;;;;;;;;;5113531;28;19915;-63
2021/07/06 02:47:41;;;;;;;;;;;;;;;;;;5114360;28;19923;-64
2021/07/06 02:50:07;;;;;;;;;;;;;;;;;;5115008;28;19912;-63
2021/07/06 02:52:33;;;;;;;;;;;;;;;;;;5113184;28;20337;-63
2021/07/06 02:54:59;;;;;;;;;;;;;;;;;;5112684;28;20016;-63
2021/07/06 02:57:34;;;;;;;;;;;;;;;;;;5111006;28;19920;-63
2021/07/06 03:00:00;;;;;;;;;;;;;;;;;;5124493;28;19908;-63
2021/07/06 03:02:26;;;;;;;;;;;;;;;;;;5113732;28;19912;-63
2021/07/06 03:04:52;;;;;;;;;;;;;;;;;;5112944;28;20281;-63
2021/07/06 03:07:18;;;;;;;;;;;;;;;;;;5113337;28;19923;-73
2021/07/06 03:09:44;;;;;;;;;;;;;;;;;;5110051;28;20492;-74
2021/07/06 03:12:10;;;;;;;;;;;;;;;;;;5114207;28;19937;-74
2021/07/06 03:14:35;;;;;;;;;;;;;;;;;;5116550;28;20019;-74
2021/07/06 03:17:01;;;;;;;;;;;;;;;;;;5117512;27;19912;-74
2021/07/06 03:19:27;;;;;;;;;;;;;;;;;;5116813;27;20449;-74
2021/07/06 03:21:54;;;;;;;;;;;;;;;;;;5115564;27;19991;-74
2021/07/06 03:24:20;;;;;;;;;;;;;;;;;;5116088;27;19915;-74
2021/07/06 03:26:46;;;;;;;;;;;;;;;;;;5118547;27;19916;-74
2021/07/06 03:29:11;;;;;;;;;;;;;;;;;;5118135;27;19955;-74
2021/07/06 03:31:37;;;;;;;;;;;;;;;;;;5117091;27;19919;-74
2021/07/06 03:34:03;;;;;;;;;;;;;;;;;;5116356;27;19911;-74
2021/07/06 03:36:29;;;;;;;;;;;;;;;;;;5113363;27;20382;-74
2021/07/06 03:38:55;;;;;;;;;;;;;;;;;;5119778;27;19915;-74
2021/07/06 03:41:21;;;;;;;;;;;;;;;;;;5116933;27;19972;-74
2021/07/06 03:43:47;;;;;;;;;;;;;;;;;;5098372;28;20363;-73
2021/07/06 03:46:13;;;;;;;;;;;;;;;;;;5116494;27;19919;-74
2021/07/06 03:48:38;;;;;;;;;;;;;;;;;;5112929;27;19974;-74
2021/07/06 03:51:04;;;;;;;;;;;;;;;;;;5118907;27;19912;-74
2021/07/06 03:53:30;;;;;;;;;;;;;;;;;;5119204;27;19935;-73
2021/07/06 03:55:56;;;;;;;;;;;;;;;;;;5116444;27;20015;-73
2021/07/06 03:58:22;;;;;;;;;;;;;;;;;;5116072;27;19972;-73
2021/07/06 04:00:48;;;;;;;;;;;;;;;;;;5103678;27;19912;-74
2021/07/06 04:03:14;;;;;;;;;;;;;;;;;;5124766;27;20309;-73
2021/07/06 04:05:40;;;;;;;;;;;;;;;;;;5125228;27;19951;-74
2021/07/06 04:08:05;;;;;;;;;;;;;;;;;;5122375;27;19971;-74
2021/07/06 04:10:31;;;;;;;;;;;;;;;;;;5122187;27;20328;-74
2021/07/06 04:12:57;;;;;;;;;;;;;;;;;;5124410;27;19912;-73
2021/07/06 04:15:24;;;;;;;;;;;;;;;;;;5122083;27;19916;-74
2021/07/06 04:17:50;;;;;;;;;;;;;;;;;;5126750;27;19915;-73
2021/07/06 04:20:16;;;;;;;;;;;;;;;;;;5124477;27;19912;-66
2021/07/06 04:22:42;;;;;;;;;;;;;;;;;;5124510;27;20030;-66
2021/07/06 04:25:08;;;;;;;;;;;;;;;;;;5123068;27;20002;-66
2021/07/06 04:27:34;;;;;;;;;;;;;;;;;;5104512;28;19924;-66
2021/07/06 04:30:00;;;;;;;;;;;;;;;;;;5118752;27;20344;-66
2021/07/06 04:32:26;;;;;;;;;;;;;;;;;;5115326;27;19912;-66
2021/07/06 04:34:52;;;;;;;;;;;;;;;;;;5115293;27;19912;-66
2021/07/06 04:37:17;;;;;;;;;;;;;;;;;;5115394;27;19919;-66
2021/07/06 04:39:43;;;;;;;;;;;;;;;;;;5113397;27;20279;-66
2021/07/06 04:42:12;;;;;;;;;;;;;;;;;;5116284;27;19908;-66
2021/07/06 04:44:38;;;;;;;;;;;;;;;;;;5099440;28;19916;-66
2021/07/06 04:47:04;;;;;;;;;;;;;;;;;;5115790;27;19980;-67
2021/07/06 04:49:30;;;;;;;;;;;;;;;;;;5115182;27;19931;-66
2021/07/06 04:51:56;;;;;;;;;;;;;;;;;;5113664;27;20351;-66
2021/07/06 04:54:25;;;;;;;;;;;;;;;;;;5113990;27;20018;-66
2021/07/06 04:56:51;;;;;;;;;;;;;;;;;;5116754;27;19907;-66
2021/07/06 04:59:17;;;;;;;;;;;;;;;;;;5115104;27;19918;-66
2021/07/06 05:01:43;;;;;;;;;;;;;;;;;;5114899;27;19911;-66
2021/07/06 05:04:09;;;;;;;;;;;;;;;;;;5114373;27;20447;-66
2021/07/06 05:06:35;;;;;;;;;;;;;;;;;;5109769;28;19912;-66
2021/07/06 05:09:01;;;;;;;;;;;;;;;;;;5118371;27;19912;-66
2021/07/06 05:11:27;;;;;;;;;;;;;;;;;;5114853;27;19915;-66
2021/07/06 05:13:52;;;;;;;;;;;;;;;;;;5115201;27;19998;-67
2021/07/06 05:16:18;;;;;;;;;;;;;;;;;;5113619;27;20350;-66
2021/07/06 05:18:44;;;;;;;;;;;;;;;;;;5111950;27;19954;-67
2021/07/06 05:21:10;;;;;;;;;;;;;;;;;;5115597;27;20354;-68
2021/07/06 05:23:36;;;;;;;;;;;;;;;;;;5117318;27;19958;-67
2021/07/06 05:26:02;;;;;;;;;;;;;;;;;;5115463;27;19919;-68
2021/07/06 05:28:28;;;;;;;;;;;;;;;;;;5114467;27;19923;-67
2021/07/06 05:30:54;;;;;;;;;;;;;;;;;;5112728;27;19918;-68
2021/07/06 05:33:20;;;;;;;;;;;;;;;;;;5113850;27;19998;-68
2021/07/06 05:35:46;;;;;;;;;;;;;;;;;;5115975;27;19908;-68
2021/07/06 05:38:12;;;;;;;;;;;;;;;;;;5114338;27;19948;-68
2021/07/06 05:40:39;;;;;;;;;;;;;;;;;;5114741;27;19964;-68
2021/07/06 05:43:05;;;;;;;;;;;;;;;;;;5113832;27;19915;-68
2021/07/06 05:45:31;;;;;;;;;;;;;;;;;;5110479;28;19920;-67
2021/07/06 05:47:57;;;;;;;;;;;;;;;;;;5116621;27;19916;-68
2021/07/06 05:50:23;;;;;;;;;;;;;;;;;;5096165;28;19912;-67
2021/07/06 05:52:49;;;;;;;;;;;;;;;;;;5115012;27;20271;-68
2021/07/06 05:55:15;;;;;;;;;;;;;;;;;;5113959;27;19960;-67
2021/07/06 05:57:43;;;;;;;;;;;;;;;;;;5110757;28;20291;-68
2021/07/06 06:00:09;;;;;;;;;;;;;;;;;;5115640;27;19998;-67
2021/07/06 06:02:35;;;;;;;;;;;;;;;;;;5114887;27;20023;-67
2021/07/06 06:05:01;;;;;;;;;;;;;;;;;;5114164;27;19999;-69
2021/07/06 06:07:27;;;;;;;;;;;;;;;;;;5112852;27;19953;-70
2021/07/06 06:09:53;;;;;;;;;;;;;;;;;;5111857;27;20018;-71
2021/07/06 06:12:19;;;;;;;;;;;;;;;;;;5113234;27;19995;-70
2021/07/06 06:14:44;;;;;;;;;;;;;;;;;;5115482;27;20336;-69
2021/07/06 06:17:10;;;;;;;;;;;;;;;;;;5117213;27;19920;-71
2021/07/06 06:19:36;;;;;;;;;;;;;;;;;;5124636;27;19987;-70
2021/07/06 06:22:02;;;;;;;;;;;;;;;;;;5125524;27;19911;-69
2021/07/06 06:24:28;;;;;;;;;;;;;;;;;;5110597;27;20037;-69
2021/07/06 06:26:54;;;;;;;;;;;;;;;;;;5115925;27;19923;-69
2021/07/06 06:29:20;;;;;;;;;;;;;;;;;;5094939;28;20327;-72
2021/07/06 06:31:46;;;;;;;;;;;;;;;;;;5113692;28;19921;-67
2021/07/06 06:34:12;;;;;;;;;;;;;;;;;;5119705;27;19922;-68
2021/07/06 06:36:38;;;;;;;;;;;;;;;;;;5116439;27;19923;-68
2021/07/06 06:39:03;;;;;;;;;;;;;;;;;;5112104;28;19938;-68
2021/07/06 06:41:29;;;;;;;;;;;;;;;;;;5114208;28;19912;-68
2021/07/06 06:43:55;;;;;;;;;;;;;;;;;;5112432;28;19916;-68
2021/07/06 06:46:21;;;;;;;;;;;;;;;;;;5111525;28;19922;-68
2021/07/06 06:48:47;;;;;;;;;;;;;;;;;;5107520;28;19984;-68
2021/07/06 06:51:13;;;;;;;;;;;;;;;;;;5106061;27;19908;-68
2021/07/06 06:53:39;;;;;;;;;;;;;;;;;;5117380;27;19908;-68
2021/07/06 06:56:05;;;;;;;;;;;;;;;;;;5115483;27;20188;-66
2021/07/06 06:58:31;;;;;;;;;;;;;;;;;;5115816;27;19922;-67
2021/07/06 07:00:57;;;;;;;;;;;;;;;;;;5114261;27;19918;-67
2021/07/06 07:03:23;;;;;;;;;;;;;;;;;;5114957;27;20382;-68
2021/07/06 07:05:50;;;;;;;;;;;;;;;;;;5118958;27;19919;-68
2021/07/06 07:08:16;;;;;;;;;;;;;;;;;;5111800;27;20005;-67
2021/07/06 07:10:42;;;;;;;;;;;;;;;;;;5116222;27;19969;-68
2021/07/06 07:13:08;;;;;;;;;;;;;;;;;;5125710;27;20421;-65
2021/07/06 07:15:34;;;;;;;;;;;;;;;;;;5111556;28;20006;-68
2021/07/06 07:18:00;;;;;;;;;;;;;;;;;;5120269;27;19908;-68
2021/07/06 07:20:26;;;;;;;;;;;;;;;;;;5117005;27;19919;-68
2021/07/06 07:22:51;;;;;;;;;;;;;;;;;;5117040;27;19916;-68
2021/07/06 07:25:17;;;;;;;;;;;;;;;;;;5117123;27;19950;-68
2021/07/06 07:27:43;;;;;;;;;;;;;;;;;;5112762;27;20003;-68
2021/07/06 07:30:09;;;;;;;;;;;;;;;;;;5118139;27;19915;-68
2021/07/06 07:32:35;;;;;;;;;;;;;;;;;;5117825;27;19908;-67
2021/07/06 07:35:01;;;;;;;;;;;;;;;;;;5098449;28;20019;-68
2021/07/06 07:37:27;;;;;;;;;;;;;;;;;;5116452;27;19919;-68
2021/07/06 07:39:53;;;;;;;;;;;;;;;;;;5114513;27;20429;-68
2021/07/06 07:42:21;;;;;;;;;;;;;;;;;;5116409;27;19915;-68
2021/07/06 07:44:46;;;;;;;;;;;;;;;;;;5118469;27;20359;-67
2021/07/06 07:47:12;;;;;;;;;;;;;;;;;;5116628;27;19941;-68
2021/07/06 07:49:38;;;;;;;;;;;;;;;;;;5114576;27;19976;-68
2021/07/06 07:52:04;;;;;;;;;;;;;;;;;;5097778;27;19962;-68
2021/07/06 07:54:30;;;;;;;;;;;;;;;;;;5113343;27;20004;-68
2021/07/06 07:56:57;;;;;;;;;;;;;;;;;;5119267;27;19914;-67
2021/07/06 07:59:23;;;;;;;;;;;;;;;;;;5116421;27;19964;-68
2021/07/06 08:01:49;;;;;;;;;;;;;;;;;;5096202;28;20006;-68
2021/07/06 08:04:15;;;;;;;;;;;;;;;;;;5116206;27;19912;-68
2021/07/06 08:06:40;;;;;;;;;;;;;;;;;;5112343;27;19912;-68
2021/07/06 08:09:07;;;;;;;;;;;;;;;;;;5118417;27;19951;-67
2021/07/06 08:11:33;;;;;;;;;;;;;;;;;;5116367;27;19923;-67
2021/07/06 08:13:59;;;;;;;;;;;;;;;;;;5115811;27;19908;-68
2021/07/06 08:16:25;;;;;;;;;;;;;;;;;;5097949;27;20316;-67
2021/07/06 08:18:51;;;;;;;;;;;;;;;;;;5095912;27;19908;-67
2021/07/06 08:21:17;;;;;;;;;;;;;;;;;;5115831;27;19918;-66
2021/07/06 08:23:43;;;;;;;;;;;;;;;;;;5117209;27;20385;-65
2021/07/06 08:26:09;;;;;;;;;;;;;;;;;;5115511;27;19958;-65
2021/07/06 08:28:35;;;;;;;;;;;;;;;;;;5097399;28;20341;-65
2021/07/06 08:31:01;;;;;;;;;;;;;;;;;;5115342;27;19907;-65
2021/07/06 08:33:26;;;;;;;;;;;;;;;;;;5113875;27;19912;-65
2021/07/06 08:35:52;;;;;;;;;;;;;;;;;;5117582;27;20002;-66
2021/07/06 08:38:18;;;;;;;;;;;;;;;;;;5115819;27;20275;-65
2021/07/06 08:40:44;;;;;;;;;;;;;;;;;;5115769;27;19911;-65
2021/07/06 08:43:10;;;;;;;;;;;;;;;;;;5115811;27;19907;-66
2021/07/06 08:45:36;;;;;;;;;;;;;;;;;;5110974;27;19985;-66
2021/07/06 08:48:02;;;;;;;;;;;;;;;;;;5118237;27;19972;-66
2021/07/06 08:50:28;;;;;;;;;;;;;;;;;;5114225;27;19911;-66
2021/07/06 08:52:54;;;;;;;;;;;;;;;;;;5114402;27;20400;-65
2021/07/06 08:55:20;;;;;;;;;;;;;;;;;;5096153;27;19911;-66
2021/07/06 08:57:46;;;;;;;;;;;;;;;;;;5111453;27;19995;-66
2021/07/06 09:00:12;;;;;;;;;;;;;;;;;;5114233;27;20002;-66
2021/07/06 09:02:37;;;;;;;;;;;;;;;;;;5114670;27;19919;-66
2021/07/06 09:05:03;;;;;;;;;;;;;;;;;;5114883;27;19911;-66
2021/07/06 09:07:29;;;;;;;;;;;;;;;;;;5115425;27;19920;-66
2021/07/06 09:09:55;;;;;;;;;;;;;;;;;;5112975;27;20014;-66
2021/07/06 09:12:21;;;;;;;;;;;;;;;;;;5113873;27;19948;-66
2021/07/06 09:14:48;;;;;;;;;;;;;;;;;;5116659;27;20299;-66
2021/07/06 09:17:14;;;;;;;;;;;;;;;;;;5114722;27;20418;-66
2021/07/06 09:19:40;;;;;;;;;;;;;;;;;;5115331;27;19995;-66
2021/07/06 09:22:06;;;;;;;;;;;;;;;;;;5113042;27;20239;-66
2021/07/06 09:24:32;;;;;;;;;;;;;;;;;;5108671;28;20332;-66
2021/07/06 09:26:58;;;;;;;;;;;;;;;;;;5115402;27;19912;-66
2021/07/06 09:29:24;;;;;;;;;;;;;;;;;;5112744;27;19912;-66
2021/07/06 09:31:50;;;;;;;;;;;;;;;;;;5112945;27;20379;-66
2021/07/06 09:34:16;;;;;;;;;;;;;;;;;;5112604;27;19911;-66
2021/07/06 09:36:43;;;;;;;;;;;;;;;;;;5110368;28;19920;-66
2021/07/06 09:39:08;;;;;;;;;;;;;;;;;;5116325;27;19916;-66
2021/07/06 09:41:34;;;;;;;;;;;;;;;;;;5114866;27;19941;-66
2021/07/06 09:44:00;;;;;;;;;;;;;;;;;;5114626;27;19965;-65
2021/07/06 09:46:26;;;;;;;;;;;;;;;;;;5114449;27;19912;-66
2021/07/06 09:48:52;;;;;;;;;;;;;;;;;;5111947;27;19920;-66
2021/07/06 09:51:18;;;;;;;;;;;;;;;;;;5114683;27;19912;-66
2021/07/06 09:53:44;;;;;;;;;;;;;;;;;;5115435;27;20305;-66
2021/07/06 09:56:10;;;;;;;;;;;;;;;;;;5114155;27;19912;-66
2021/07/06 09:58:36;;;;;;;;;;;;;;;;;;5115725;27;20002;-66
2021/07/06 10:01:01;;;;;;;;;;;;;;;;;;5113593;27;19919;-66
2021/07/06 10:03:27;;;;;;;;;;;;;;;;;;5111065;27;19978;-65
2021/07/06 10:05:53;;;;;;;;;;;;;;;;;;5116666;27;19908;-66
2021/07/06 10:08:19;;;;;;;;;;;;;;;;;;5113872;27;20290;-66
2021/07/06 10:10:45;;;;;;;;;;;;;;;;;;5113362;27;20653;-66
2021/07/06 10:13:11;;;;;;;;;;;;;;;;;;5113818;27;20493;-66
2021/07/06 10:15:37;;;;;;;;;;;;;;;;;;5109825;28;19915;-66
2021/07/06 10:18:03;;;;;;;;;;;;;;;;;;5116975;27;20274;-66
2021/07/06 10:20:29;;;;;;;;;;;;;;;;;;5113924;27;19926;-66
2021/07/06 10:22:55;;;;;;;;;;;;;;;;;;5113761;27;19912;-66
2021/07/06 10:25:21;;;;;;;;;;;;;;;;;;5106440;28;19916;-65
2021/07/06 10:27:47;;;;;;;;;;;;;;;;;;5108717;28;19920;-65
2021/07/06 10:30:16;;;;;;;;;;;;;;;;;;5108303;28;19908;-65
2021/07/06 10:32:42;;;;;;;;;;;;;;;;;;5115812;28;20354;-65
2021/07/06 10:35:08;;;;;;;;;;;;;;;;;;5112475;27;19920;-65
2021/07/06 10:37:34;;;;;;;;;;;;;;;;;;5093000;28;20002;-65
2021/07/06 10:40:00;;;;;;;;;;;;;;;;;;5102004;28;19907;-65
2021/07/06 10:42:25;;;;;;;;;;;;;;;;;;5109904;28;19920;-65
2021/07/06 10:44:51;;;;;;;;;;;;;;;;;;5114589;28;19953;-68
2021/07/06 10:47:17;;;;;;;;;;;;;;;;;;5111597;28;19915;-68
2021/07/06 10:49:43;;;;;;;;;;;;;;;;;;5112686;28;19919;-67
2021/07/06 10:52:09;;;;;;;;;;;;;;;;;;5112383;28;20387;-67
2021/07/06 10:54:35;;;;;;;;;;;;;;;;;;5109345;28;19919;-67
2021/07/06 10:57:01;;;;;;;;;;;;;;;;;;5116330;28;20235;-66
2021/07/06 10:59:27;;;;;;;;;;;;;;;;;;5112348;28;20002;-66
2021/07/06 11:01:54;;;;;;;;;;;;;;;;;;5112309;28;19912;-66
2021/07/06 11:04:19;;;;;;;;;;;;;;;;;;5113202;28;19907;-67
2021/07/06 11:09:11;;;;;;;;;;;;;;;;;;5114640;28;19953;-61
2021/07/06 11:11:37;;;;;;;;;;;;;;;;;;5115881;28;20006;-66
2021/07/06 11:14:03;;;;;;;;;;;;;;;;;;5094323;28;19912;-67
2021/07/06 11:16:29;;;;;;;;;;;;;;;;;;5113738;28;19912;-68
2021/07/06 11:18:55;;;;;;;;;;;;;;;;;;5111728;28;19912;-67
2021/07/06 11:21:20;;;;;;;;;;;;;;;;;;5112088;28;19919;-67
2021/07/06 11:23:48;;;;;;;;;;;;;;;;;;5114490;28;20379;-67
2021/07/06 11:26:20;;;;;;;;;;;;;;;;;;5113166;28;19969;-67
2021/07/06 11:28:46;;;;;;;;;;;;;;;;;;5113104;28;19924;-67
2021/07/06 11:31:12;;;;;;;;;;;;;;;;;;5113362;28;19911;-66
2021/07/06 11:33:41;;;;;;;;;;;;;;;;;;5108970;28;19931;-65
2021/07/06 11:36:06;;;;;;;;;;;;;;;;;;5117277;28;19922;-65
2021/07/06 11:38:32;;;;;;;;;;;;;;;;;;5099127;28;19908;-67
2021/07/06 11:40:58;;;;;;;;;;;;;;;;;;5116426;27;19920;-67
2021/07/06 11:43:24;;;;;;;;;;;;;;;;;;5116724;27;19911;-66
2021/07/06 11:45:50;;;;;;;;;;;;;;;;;;5114670;27;20306;-68
2021/07/06 11:48:16;;;;;;;;;;;;;;;;;;5099202;28;19940;-66
2021/07/06 11:50:42;;;;;;;;;;;;;;;;;;5117447;27;19970;-67
2021/07/06 11:53:08;;;;;;;;;;;;;;;;;;5116384;27;19966;-66
2021/07/06 11:55:34;;;;;;;;;;;;;;;;;;5116961;27;20362;-67
2021/07/06 11:58:00;;;;;;;;;;;;;;;;;;5115213;27;19911;-67
2021/07/06 12:00:26;;;;;;;;;;;;;;;;;;5114533;27;20362;-68
2021/07/06 12:02:52;;;;;;;;;;;;;;;;;;5118456;27;19908;-68
2021/07/06 12:05:17;;;;;;;;;;;;;;;;;;5115816;27;19998;-68
2021/07/06 12:07:43;;;;;;;;;;;;;;;;;;5116277;27;19919;-67
2021/07/06 12:10:09;;;;;;;;;;;;;;;;;;5116332;27;19919;-67
2021/07/06 12:12:36;;;;;;;;;;;;;;;;;;5109570;28;19966;-68
2021/07/06 12:15:02;;;;;;;;;;;;;;;;;;5118955;27;19911;-63
2021/07/06 12:17:28;;;;;;;;;;;;;;;;;;5115431;27;19912;-63
2021/07/06 12:19:54;;;;;;;;;;;;;;;;;;5116375;27;19937;-69
2021/07/06 12:22:20;;;;;;;;;;;;;;;;;;5115727;27;19911;-69
2021/07/06 12:24:46;;;;;;;;;;;;;;;;;;5112992;27;19920;-69
2021/07/06 12:27:16;;;;;;;;;;;;;;;;;;5115959;27;19985;-69
2021/07/06 12:29:43;;;;;;;;;;;;;;;;;;5116718;27;19937;-70
2021/07/06 12:32:12;;;;;;;;;;;;;;;;;;5115867;27;19922;-65
2021/07/06 12:34:38;;;;;;;;;;;;;;;;;;5115597;27;20371;-66
2021/07/06 12:37:04;;;;;;;;;;;;;;;;;;5114861;27;19918;-67
2021/07/06 12:39:30;;;;;;;;;;;;;;;;;;5111839;28;20360;-64
2021/07/06 12:41:56;;;;;;;;;;;;;;;;;;5118727;27;20048;-67
2021/07/06 12:44:22;;;;;;;;;;;;;;;;;;5115865;27;20386;-63
2021/07/06 12:46:48;;;;;;;;;;;;;;;;;;5110848;27;19998;-65
2021/07/06 12:49:13;;;;;;;;;;;;;;;;;;5112529;27;19916;-66
2021/07/06 12:51:39;;;;;;;;;;;;;;;;;;5110117;28;20379;-70
2021/07/06 12:54:06;;;;;;;;;;;;;;;;;;5110379;28;19951;-68
2021/07/06 12:56:32;;;;;;;;;;;;;;;;;;5096474;27;19907;-67
2021/07/06 12:58:58;;;;;;;;;;;;;;;;;;5110266;28;20316;-69
2021/07/06 13:01:24;;;;;;;;;;;;;;;;;;5113876;27;20274;-70
2021/07/06 13:03:49;;;;;;;;;;;;;;;;;;5112215;27;19919;-66
2021/07/06 13:06:15;;;;;;;;;;;;;;;;;;5115314;27;19908;-70
2021/07/06 13:08:41;;;;;;;;;;;;;;;;;;5105025;27;20451;-67
2021/07/06 13:11:12;;;;;;;;;;;;;;;;;;5114031;27;20037;-66
2021/07/06 13:13:38;;;;;;;;;;;;;;;;;;5114107;27;19922;-69
2021/07/06 13:16:04;;;;;;;;;;;;;;;;;;5112063;27;19915;-68
2021/07/06 13:18:30;;;;;;;;;;;;;;;;;;5110688;27;19912;-67
2021/07/06 13:20:56;;;;;;;;;;;;;;;;;;5106613;27;19947;-68
2021/07/06 13:23:22;;;;;;;;;;;;;;;;;;5121420;27;19922;-65
2021/07/06 13:25:48;;;;;;;;;;;;;;;;;;5119008;27;19935;-75
2021/07/06 13:28:15;;;;;;;;;;;;;;;;;;5114739;27;19924;-67
2021/07/06 13:30:41;;;;;;;;;;;;;;;;;;5108437;27;19912;-67
2021/07/06 13:33:08;;;;;;;;;;;;;;;;;;5116744;27;19915;-67
2021/07/06 13:35:34;;;;;;;;;;;;;;;;;;5114516;27;20290;-69
2021/07/06 13:38:00;;;;;;;;;;;;;;;;;;5114946;27;19911;-64
2021/07/06 13:40:25;;;;;;;;;;;;;;;;;;5113107;27;20007;-65
2021/07/06 13:42:51;;;;;;;;;;;;;;;;;;5109718;27;19955;-71
2021/07/06 13:45:17;;;;;;;;;;;;;;;;;;5113525;27;19958;-67
2021/07/06 13:47:43;;;;;;;;;;;;;;;;;;5109999;27;19916;-66
2021/07/06 13:50:09;;;;;;;;;;;;;;;;;;5110897;27;19943;-68
2021/07/06 13:52:35;;;;;;;;;;;;;;;;;;5114172;27;19919;-69
2021/07/06 13:55:02;;;;;;;;;;;;;;;;;;5110358;27;19911;-67
2021/07/06 13:57:28;;;;;;;;;;;;;;;;;;5104688;27;22814;-69
2021/07/06 13:59:54;;;;;;;;;;;;;;;;;;5110517;28;19951;-70
2021/07/06 14:02:20;;;;;;;;;;;;;;;;;;5113566;27;19911;-69
2021/07/06 14:04:46;;;;;;;;;;;;;;;;;;5116077;27;20392;-69
2021/07/06 14:07:11;;;;;;;;;;;;;;;;;;5084618;27;19919;-68
2021/07/06 14:09:37;;;;;;;;;;;;;;;;;;5109185;27;19920;-68
2021/07/06 14:12:03;;;;;;;;;;;;;;;;;;5128159;27;19912;-68
2021/07/06 14:14:29;;;;;;;;;;;;;;;;;;5112642;27;19912;-68
2021/07/06 14:16:55;;;;;;;;;;;;;;;;;;5111823;27;19912;-70
2021/07/06 14:19:21;;;;;;;;;;;;;;;;;;5096709;28;19920;-67
2021/07/06 14:21:48;;;;;;;;;;;;;;;;;;5109488;28;19954;-68
2021/07/06 14:24:13;;;;;;;;;;;;;;;;;;5110491;28;19908;-68
2021/07/06 14:26:39;;;;;;;;;;;;;;;;;;5109721;28;19908;-68
2021/07/06 14:29:05;;;;;;;;;;;;;;;;;;5102933;28;19919;-68
2021/07/06 14:31:31;;;;;;;;;;;;;;;;;;5103734;28;19912;-68
2021/07/06 14:33:57;;;;;;;;;;;;;;;;;;5109583;28;19972;-68
2021/07/06 14:36:23;;;;;;;;;;;;;;;;;;5109497;28;19908;-68
2021/07/06 14:38:49;;;;;;;;;;;;;;;;;;5110503;28;19972;-68
2021/07/06 14:41:15;;;;;;;;;;;;;;;;;;5088526;28;19916;-67
2021/07/06 14:43:41;;;;;;;;;;;;;;;;;;5099534;28;20395;-67
2021/07/06 14:46:07;;;;;;;;;;;;;;;;;;5109530;28;19943;-67
2021/07/06 14:48:33;;;;;;;;;;;;;;;;;;5108377;28;19927;-66
2021/07/06 14:50:59;;;;;;;;;;;;;;;;;;5110881;28;19998;-67
2021/07/06 14:53:24;;;;;;;;;;;;;;;;;;5111015;28;19956;-67
2021/07/06 14:55:50;;;;;;;;;;;;;;;;;;5104326;28;20282;-67
2021/07/06 14:58:16;;;;;;;;;;;;;;;;;;5099184;28;19923;-68
2021/07/06 15:00:42;;;;;;;;;;;;;;;;;;5108920;28;19983;-68
2021/07/06 15:03:08;;;;;;;;;;;;;;;;;;5102273;28;19919;-68
2021/07/06 15:05:34;;;;;;;;;;;;;;;;;;5107192;28;19919;-68
2021/07/06 15:08:00;;;;;;;;;;;;;;;;;;5108182;28;20287;-67
2021/07/06 15:10:26;;;;;;;;;;;;;;;;;;5099748;27;19919;-68
2021/07/06 15:12:52;;;;;;;;;;;;;;;;;;5110384;27;19919;-66
2021/07/06 15:15:18;;;;;;;;;;;;;;;;;;5111539;27;19912;-68
2021/07/06 15:17:44;;;;;;;;;;;;;;;;;;5112949;27;19931;-67
2021/07/06 15:20:10;;;;;;;;;;;;;;;;;;5113259;27;19919;-68
2021/07/06 15:22:36;;;;;;;;;;;;;;;;;;5108367;27;19912;-69
2021/07/06 15:25:02;;;;;;;;;;;;;;;;;;5105742;28;19946;-67
2021/07/06 15:27:28;;;;;;;;;;;;;;;;;;5113635;27;19968;-67
2021/07/06 15:29:54;;;;;;;;;;;;;;;;;;5115639;27;19930;-69
2021/07/06 15:32:20;;;;;;;;;;;;;;;;;;5113070;27;20006;-67
2021/07/06 15:34:46;;;;;;;;;;;;;;;;;;5112849;27;19912;-67
2021/07/06 15:37:11;;;;;;;;;;;;;;;;;;5097230;27;19915;-68
2021/07/06 15:39:37;;;;;;;;;;;;;;;;;;5113153;28;19919;-68
2021/07/06 15:42:03;;;;;;;;;;;;;;;;;;5114587;28;19908;-67
2021/07/06 15:44:29;;;;;;;;;;;;;;;;;;5113129;27;19951;-66
2021/07/06 15:46:55;;;;;;;;;;;;;;;;;;5112546;27;20375;-66
2021/07/06 15:49:21;;;;;;;;;;;;;;;;;;5102703;27;19918;-68
2021/07/06 15:51:47;;;;;;;;;;;;;;;;;;5113855;27;20279;-67
2021/07/06 15:54:13;;;;;;;;;;;;;;;;;;5115706;27;20056;-66
2021/07/06 15:56:39;;;;;;;;;;;;;;;;;;5115670;27;20286;-67
2021/07/06 15:59:04;;;;;;;;;;;;;;;;;;5112130;28;19919;-66
2021/07/06 16:01:30;;;;;;;;;;;;;;;;;;5106950;28;19919;-65
2021/07/06 16:03:56;;;;;;;;;;;;;;;;;;5107181;28;19954;-66
2021/07/06 16:06:22;;;;;;;;;;;;;;;;;;5112712;28;19915;-65
2021/07/06 16:08:50;;;;;;;;;;;;;;;;;;5113599;28;19919;-69
2021/07/06 16:11:16;;;;;;;;;;;;;;;;;;5112873;28;20256;-64
2021/07/06 16:13:42;;;;;;;;;;;;;;;;;;5108126;28;19965;-66
2021/07/06 16:16:08;;;;;;;;;;;;;;;;;;5103061;28;19911;-66
2021/07/06 16:18:34;;;;;;;;;;;;;;;;;;5110730;28;19919;-65
2021/07/06 16:21:00;;;;;;;;;;;;;;;;;;5111024;28;19960;-65
2021/07/06 16:23:26;;;;;;;;;;;;;;;;;;5111787;28;20363;-66
2021/07/06 16:25:51;;;;;;;;;;;;;;;;;;5110907;28;19924;-65
2021/07/06 16:28:17;;;;;;;;;;;;;;;;;;5109598;28;20295;-66
2021/07/06 16:30:44;;;;;;;;;;;;;;;;;;5112717;28;19981;-67
2021/07/06 16:33:10;;;;;;;;;;;;;;;;;;5095136;28;19961;-67
2021/07/06 16:35:36;;;;;;;;;;;;;;;;;;5108465;28;19908;-67
2021/07/06 16:38:04;;;;;;;;;;;;;;;;;;5107939;27;19974;-66
2021/07/06 16:40:30;;;;;;;;;;;;;;;;;;5112052;27;19916;-66